This is the latest recevied weather packets stored in our database for station/object W4SKW. If no packets are shown the sender has not sent any weather packets the latest 1 day(s).
| Time | Temp. | Humidity | Pressure | Rain* | Wind** | Luminosity | Snow |
|---|---|---|---|---|---|---|---|
| 1778032658 | 18.89° C | 73% | 1014 hPa | 0 mm | - | 0 W/m² | - |
| 1778032052 | 18.89° C | 70% | 1013.9 hPa | 0 mm | - | 0 W/m² | - |
| 1778031748 | 18.89° C | 71% | 1013.8 hPa | 0 mm | - | 0 W/m² | - |
| 1778031446 | 18.89° C | 72% | 1013.9 hPa | 0 mm | - | 0 W/m² | - |
| 1778031143 | 18.89° C | 73% | 1013.7 hPa | 0 mm | - | 0 W/m² | - |
| 1778030839 | 19.44° C | 72% | 1013.8 hPa | 0 mm | - | 0 W/m² | - |
| 1778030536 | 18.89° C | 69% | 1013.8 hPa | 0 mm | - | 0 W/m² | - |
| 1778030164 | 19.44° C | 70% | 1013.8 hPa | 0 mm | - | 0 W/m² | - |
| 1778029554 | 19.44° C | 69% | 1013.5 hPa | 0 mm | - | 0 W/m² | - |
| 1778028948 | 19.44° C | 70% | 1013.6 hPa | 0 mm | - | 0 W/m² | - |
| 1778028341 | 19.44° C | 66% | 1013.5 hPa | 0 mm | - | 0 W/m² | - |
| 1778026513 | 20° C | 64% | 1013.4 hPa | 0 mm | - | 8 W/m² | - |
| 1778025908 | 20.56° C | 63% | 1013.4 hPa | 0 mm | - | 12 W/m² | - |
| 1778024999 | 20.56° C | 62% | 1013.5 hPa | 0 mm | - | 23 W/m² | - |
| 1778024091 | 21.11° C | 62% | 1013.5 hPa | 0 mm | - | 31 W/m² | - |
| 1778020945 | 22.78° C | 59% | 1013.6 hPa | 0 mm | - | 164 W/m² | - |
| 1778019730 | 22.22° C | 59% | 1013.8 hPa | 0 mm | - | 59 W/m² | - |
| 1778019428 | 22.78° C | 62% | 1013.7 hPa | 0 mm | - | 65 W/m² | - |
| 1778019124 | 22.22° C | 62% | 1013.5 hPa | 0 mm | - | 94 W/m² | - |
| 1778017612 | 22.78° C | 58% | 1014 hPa | 0 mm | - | 107 W/m² | - |
| 1778017309 | 22.78° C | 62% | 1014 hPa | 0 mm | - | 116 W/m² | - |
| 1778015491 | 23.89° C | 57% | 1013.9 hPa | 0 mm | - | 132 W/m² | - |
| 1778013674 | 25.56° C | 42% | 1014.1 hPa | 0 mm | - | 267 W/m² | - |
| 1778009732 | 26.11° C | 45% | 1014.6 hPa | 0 mm | - | 618 W/m² | - |
* Rain latest hour (hover to see other rain measurements)
** Current wind speed in m/s (hover to see current wind gust speed)